Quinque, Virginia
Current Conditions -  °F | °C
As of 7:53 PM on Friday 24 Oct 2014 (Local Time) from KCHO Reporting Station
Clear Clear  
Wind Chill: 57°   Ceiling: Unl
Heat Index: 57°   Visibility: 10mi
Dew Point: 41°   Wind: 0mph
Humidity: 55%   Direction: NA
Pressure: 29.96"   Gusts: NA
Location:  38.25°N, 78.4°W
Report Text: KCHO 242353Z 00000KT 10SM CLR 14/05 A2996 RMK AO2 SLP142 T01390050 10211 20139 53008
Loading
Personal Weather Stations






























Interactive Weather Map
Tropical Storm Tracking
New forecast layout! Learn more

10-Day Weather Forecast

Advertisements
Track Severe Weather on mobile